Time;durP1;ratioP1;P1;durP2;ratioP2;P2;SDS_P1;SDS_P2;PMS_P1;PMS_P2;Temp;Humidity;BMP_temperature;BMP_pressure;BME280_temperature;BME280_humidity;BME280_pressure;Samples;Min_cycle;Max_cycle;Signal;HPM_P1;HPM_P2
2021/11/02 00:00:36;;;;;;;1.90;1.57;;;21.80;53.40;;;;;;5078917;28;20441;-77
2021/11/02 00:03:02;;;;;;;2.23;2.03;;;21.90;53.50;;;;;;5097242;28;20219;-77
2021/11/02 00:05:28;;;;;;;3.50;1.90;;;21.90;53.50;;;;;;5080045;28;20445;-77
2021/11/02 00:07:53;;;;;;;2.10;1.73;;;21.90;53.50;;;;;;5079178;28;20428;-77
2021/11/02 00:13:45;;;;;;;2.17;1.97;;;21.90;53.50;;;;;;5096389;28;20157;-77
2021/11/02 00:16:13;;;;;;;2.33;1.83;;;21.80;53.50;;;;;;5079268;28;20455;-78
2021/11/02 00:18:44;;;;;;;2.53;2.10;;;21.80;53.50;;;;;;5096432;28;20404;-77
2021/11/02 00:21:11;;;;;;;2.43;1.73;;;21.80;53.60;;;;;;5079119;28;20424;-78
2021/11/02 00:23:38;;;;;;;2.20;1.73;;;21.80;53.60;;;;;;5096463;28;20409;-77
2021/11/02 00:26:06;;;;;;;2.60;1.90;;;21.80;53.60;;;;;;5078988;28;20420;-77
2021/11/02 00:28:33;;;;;;;2.70;1.87;;;21.90;53.70;;;;;;5069734;28;20430;-77
2021/11/02 00:30:59;;;;;;;1.87;1.67;;;21.90;53.70;;;;;;5076367;28;20406;-78
2021/11/02 00:33:28;;;;;;;4.43;2.50;;;21.90;53.60;;;;;;5076919;28;20412;-78
2021/11/02 00:35:54;;;;;;;1.90;1.70;;;21.80;53.60;;;;;;5058940;28;20449;-78
2021/11/02 00:38:20;;;;;;;2.00;1.80;;;21.80;53.60;;;;;;5058669;28;20417;-77
2021/11/02 00:40:47;;;;;;;2.33;2.13;;;21.90;53.70;;;;;;5076374;28;20388;-77
2021/11/02 00:43:13;;;;;;;3.10;2.00;;;21.80;53.60;;;;;;5075643;28;20411;-77
2021/11/02 00:45:40;;;;;;;1.47;1.37;;;21.80;53.60;;;;;;5058572;28;20437;-77
2021/11/02 00:48:12;;;;;;;2.50;1.67;;;21.90;54.30;;;;;;5058633;28;20436;-78
2021/11/02 00:50:40;;;;;;;3.07;1.93;;;21.80;53.60;;;;;;5075776;28;20424;-77
2021/11/02 00:53:07;;;;;;;2.20;1.83;;;21.80;53.60;;;;;;5075218;28;20418;-77
2021/11/02 00:55:34;;;;;;;2.20;1.63;;;21.90;53.70;;;;;;5058817;28;20465;-78
2021/11/02 00:58:05;;;;;;;1.63;1.47;;;21.90;53.70;;;;;;5074933;28;20416;-77
2021/11/02 01:00:32;;;;;;;1.90;1.50;;;21.90;53.70;;;;;;5075631;28;20425;-78
2021/11/02 01:02:58;;;;;;;1.70;1.60;;;21.80;53.60;;;;;;5058516;28;20418;-77
2021/11/02 01:05:27;;;;;;;2.10;1.87;;;21.80;53.70;;;;;;5058543;28;20461;-77
2021/11/02 01:07:52;;;;;;;2.17;1.40;;;21.80;53.70;;;;;;5075971;28;20628;-78
2021/11/02 01:10:18;;;;;;;2.60;2.37;;;21.90;53.70;;;;;;5075758;28;20417;-77
2021/11/02 01:12:46;;;;;;;2.03;1.83;;;21.90;53.70;;;;;;5058214;28;20197;-78
2021/11/02 01:15:15;;;;;;;2.70;2.00;;;21.90;53.70;;;;;;5075327;28;20244;-77
2021/11/02 01:17:41;;;;;;;1.70;1.60;;;21.90;53.80;;;;;;5057488;28;20417;-78
2021/11/02 01:20:09;;;;;;;2.00;1.80;;;21.80;53.70;;;;;;5075184;28;20416;-77
2021/11/02 01:22:35;;;;;;;1.90;1.50;;;21.90;53.80;;;;;;5075241;28;20885;-78
2021/11/02 01:25:01;;;;;;;2.30;1.50;;;21.90;53.80;;;;;;5057974;28;20420;-78
2021/11/02 01:27:30;;;;;;;1.90;1.67;;;21.80;53.70;;;;;;5057483;28;20493;-77
2021/11/02 01:29:56;;;;;;;2.27;1.63;;;21.80;53.70;;;;;;5057545;28;20175;-77
2021/11/02 01:32:22;;;;;;;1.70;1.57;;;21.80;53.70;;;;;;5057552;28;20428;-78
2021/11/02 01:34:48;;;;;;;1.83;1.40;;;21.80;53.70;;;;;;5074474;28;20441;-77
2021/11/02 01:37:14;;;;;;;2.33;2.00;;;21.80;53.70;;;;;;5057551;28;20175;-78
2021/11/02 01:39:40;;;;;;;2.90;2.70;;;21.80;53.70;;;;;;5075114;28;20201;-78
2021/11/02 01:42:05;;;;;;;1.57;1.40;;;21.80;53.70;;;;;;5056951;28;20418;-78
2021/11/02 01:44:31;;;;;;;2.17;1.77;;;21.80;53.70;;;;;;5074773;28;20425;-77
2021/11/02 01:46:59;;;;;;;1.80;1.50;;;21.90;53.80;;;;;;5074877;28;20167;-77
2021/11/02 01:49:27;;;;;;;1.90;1.60;;;21.80;53.70;;;;;;5075325;28;20179;-77
2021/11/02 01:51:54;;;;;;;2.17;1.80;;;21.80;53.70;;;;;;5057422;28;20417;-77
2021/11/02 01:54:59;;;;;;;1.70;1.40;;;21.80;53.70;;;;;;5075022;28;20461;-77
2021/11/02 01:57:26;;;;;;;2.77;2.17;;;21.90;53.80;;;;;;5075091;28;20450;-77
2021/11/02 01:59:52;;;;;;;1.73;1.30;;;21.80;53.80;;;;;;5024542;28;20413;-77
2021/11/02 02:02:54;;;;;;;1.77;1.63;;;21.80;53.80;;;;;;5057877;28;20420;-77
2021/11/02 02:05:29;;;;;;;1.90;1.70;;;21.80;53.70;;;;;;4958676;29;20429;-78
2021/11/02 02:08:05;;;;;;;2.80;1.60;;;21.80;53.80;;;;;;4958308;29;20405;-77
2021/11/02 02:11:08;;;;;;;4.90;1.87;;;21.80;53.80;;;;;;4974586;28;20422;-76
2021/11/02 02:13:54;;;;;;;2.23;1.50;;;21.80;53.80;;;;;;4958778;29;20418;-77
2021/11/02 02:16:38;;;;;;;1.97;1.53;;;21.80;53.80;;;;;;4958034;29;20963;-76
2021/11/02 02:19:19;;;;;;;1.73;1.47;;;21.80;53.90;;;;;;4959074;29;20424;-77
2021/11/02 02:21:50;;;;;;;1.70;1.60;;;21.80;53.90;;;;;;4958835;29;20465;-76
2021/11/02 02:24:40;;;;;;;1.67;1.57;;;21.80;53.90;;;;;;4958438;29;20409;-77
2021/11/02 02:27:30;;;;;;;1.63;1.40;;;21.80;53.90;;;;;;4958448;29;20442;-77
2021/11/02 02:29:58;;;;;;;1.67;1.40;;;21.80;53.90;;;;;;4958181;29;20414;-77
2021/11/02 02:32:26;;;;;;;2.53;1.73;;;21.80;53.90;;;;;;4958663;29;20406;-76
2021/11/02 02:34:56;;;;;;;2.30;1.67;;;21.80;53.90;;;;;;4958098;29;20493;-76
2021/11/02 02:37:30;;;;;;;2.00;1.30;;;21.80;53.90;;;;;;4958668;29;20430;-78
2021/11/02 02:39:58;;;;;;;2.37;1.67;;;21.80;53.90;;;;;;4974623;29;20397;-77
2021/11/02 02:42:27;;;;;;;1.57;1.23;;;21.80;53.90;;;;;;5008075;28;20521;-78
2021/11/02 02:44:55;;;;;;;1.87;1.70;;;21.80;53.90;;;;;;5055817;28;20413;-77
2021/11/02 02:47:26;;;;;;;2.00;1.70;;;21.80;53.90;;;;;;5073966;28;20394;-78
2021/11/02 02:50:00;;;;;;;2.20;1.70;;;21.80;53.90;;;;;;5057323;28;20425;-77
2021/11/02 02:52:29;;;;;;;2.37;1.70;;;21.80;53.90;;;;;;5073860;28;20398;-77
2021/11/02 02:54:57;;;;;;;1.70;1.27;;;21.80;53.90;;;;;;5056942;28;20496;-77
2021/11/02 02:57:25;;;;;;;2.17;1.70;;;21.80;53.90;;;;;;5056488;28;20418;-78
2021/11/02 02:59:52;;;;;;;1.60;1.50;;;21.80;53.90;;;;;;5056819;28;20413;-77
2021/11/02 03:02:21;;;;;;;1.83;1.70;;;21.80;53.90;;;;;;5056844;28;20419;-77
2021/11/02 03:04:53;;;;;;;1.60;1.47;;;21.80;53.90;;;;;;5056323;28;20418;-77
2021/11/02 03:07:21;;;;;;;2.30;1.63;;;21.80;53.90;;;;;;5056603;28;20405;-77
2021/11/02 03:09:48;;;;;;;1.70;1.60;;;21.80;53.90;;;;;;5056406;28;20421;-77
2021/11/02 03:12:25;;;;;;;1.70;1.50;;;21.80;53.90;;;;;;5073709;28;20406;-78
2021/11/02 03:52:03;;;;;;;1.50;1.30;;;21.70;54.00;;;;;;5097126;28;20400;-78
2021/11/02 04:25:44;;;;;;;1.60;1.40;;;21.70;54.10;;;;;;5014971;28;20455;-78
2021/11/02 05:07:15;;;;;;;1.20;1.10;;;21.70;54.20;;;;;;5095582;28;20401;-78
2021/11/02 05:10:09;;;;;;;3.70;1.60;;;21.70;54.40;;;;;;5095116;28;20476;-78
2021/11/02 05:13:37;;;;;;;2.13;1.60;;;21.70;54.20;;;;;;5095851;28;20405;-78
2021/11/02 05:48:52;;;;;;;1.63;1.37;;;21.70;54.10;;;;;;5095091;28;20387;-78
2021/11/02 05:56:36;;;;;;;1.37;1.20;;;21.70;54.00;;;;;;5094572;28;20540;-77
2021/11/02 06:07:25;;;;;;;1.50;1.40;;;21.80;54.00;;;;;;5095101;28;20393;-78
2021/11/02 06:09:59;;;;;;;1.60;1.37;;;21.80;54.00;;;;;;5095000;28;20480;-78
2021/11/02 06:29:16;;;;;;;1.30;1.10;;;21.80;53.80;;;;;;5094521;28;20396;-76
2021/11/02 06:31:59;;;;;;;1.63;1.33;;;21.80;53.80;;;;;;5076914;28;20423;-76
2021/11/02 06:34:59;;;;;;;1.47;1.10;;;21.90;53.90;;;;;;5076931;28;20409;-77
2021/11/02 06:46:49;;;;;;;1.57;1.20;;;21.90;53.80;;;;;;5094346;28;20427;-78
2021/11/02 06:57:51;;;;;;;2.40;1.67;;;21.80;53.80;;;;;;5094094;28;20460;-76
2021/11/02 07:00:52;;;;;;;1.77;1.40;;;21.90;53.90;;;;;;5076571;28;20408;-76
2021/11/02 07:18:02;;;;;;;1.27;1.10;;;21.90;53.90;;;;;;5095184;28;20392;-77
2021/11/02 07:20:40;;;;;;;1.87;1.10;;;21.80;53.80;;;;;;5077212;28;20408;-77
2021/11/02 07:23:17;;;;;;;1.10;1.00;;;21.90;53.90;;;;;;5077004;28;20408;-76
2021/11/02 07:26:04;;;;;;;1.20;1.10;;;21.90;53.80;;;;;;5076922;28;20424;-76
2021/11/02 08:47:51;;;;;;;1.10;1.00;;;22.00;53.80;;;;;;5077560;28;20424;-79
2021/11/02 08:50:19;;;;;;;1.30;1.00;;;22.00;53.80;;;;;;5078294;28;20413;-79
2021/11/02 08:52:54;;;;;;;1.03;0.93;;;22.00;53.80;;;;;;5075125;28;20898;-79
2021/11/02 08:55:20;;;;;;;1.27;1.17;;;22.00;53.80;;;;;;5074504;28;20467;-79
2021/11/02 08:57:50;;;;;;;1.10;1.00;;;22.00;53.80;;;;;;5074936;28;20417;-79
2021/11/02 09:00:18;;;;;;;1.20;1.10;;;22.00;53.70;;;;;;5076105;28;20435;-79
2021/11/02 09:02:49;;;;;;;1.07;0.90;;;22.00;53.70;;;;;;5075037;28;20822;-79
2021/11/02 09:05:30;;;;;;;1.13;0.90;;;22.10;53.80;;;;;;5075438;28;20400;-79
2021/11/02 09:08:05;;;;;;;1.20;1.10;;;22.10;53.80;;;;;;5058119;28;20428;-78
2021/11/02 09:10:34;;;;;;;1.10;0.83;;;22.10;53.80;;;;;;5074953;28;20496;-79
2021/11/02 09:13:02;;;;;;;1.30;1.10;;;22.10;53.80;;;;;;5075474;28;20832;-79
2021/11/02 09:15:31;;;;;;;1.10;1.00;;;22.10;53.70;;;;;;5074384;28;20460;-78
2021/11/02 09:18:10;;;;;;;1.10;0.97;;;22.10;53.70;;;;;;5092860;28;20400;-78
2021/11/02 09:20:43;;;;;;;1.13;0.83;;;22.10;53.70;;;;;;5091884;28;20409;-79
2021/11/02 09:23:09;;;;;;;1.20;0.93;;;22.10;53.70;;;;;;5075447;28;20405;-79
2021/11/02 09:25:38;;;;;;;1.10;1.00;;;22.10;53.70;;;;;;5074706;28;20516;-78
2021/11/02 09:28:04;;;;;;;1.30;1.00;;;22.10;53.70;;;;;;5074676;28;20427;-79
2021/11/02 09:30:31;;;;;;;1.20;1.10;;;22.10;53.70;;;;;;5092747;28;20413;-78
2021/11/02 09:32:57;;;;;;;1.47;1.00;;;22.10;53.70;;;;;;5091221;28;20435;-79
2021/11/02 09:35:32;;;;;;;1.30;1.00;;;22.10;53.70;;;;;;5074132;28;20517;-79
2021/11/02 09:38:00;;;;;;;1.13;1.03;;;22.10;53.70;;;;;;5041126;28;20468;-80
2021/11/02 09:41:03;;;;;;;1.30;1.10;;;22.10;53.70;;;;;;5073135;28;20480;-79
2021/11/02 09:43:58;;;;;;;1.10;1.00;;;22.10;53.60;;;;;;5091157;28;20781;-79
2021/11/02 09:46:24;;;;;;;1.13;0.90;;;22.10;53.70;;;;;;5073006;28;20436;-79
2021/11/02 09:49:30;;;;;;;1.30;1.10;;;22.10;53.70;;;;;;5073450;28;20439;-80
2021/11/02 09:52:02;;;;;;;1.07;0.97;;;22.10;53.70;;;;;;5072408;28;20238;-79
2021/11/02 09:54:59;;;;;;;1.00;0.90;;;22.10;53.70;;;;;;5091197;28;20405;-79
2021/11/02 09:57:33;;;;;;;1.40;1.03;;;22.10;53.70;;;;;;5091472;28;20914;-79
2021/11/02 10:00:19;;;;;;;1.10;1.00;;;22.10;53.80;;;;;;5091233;28;20389;-79
2021/11/02 10:03:27;;;;;;;1.93;0.90;;;22.10;53.80;;;;;;5073965;28;20408;-78
2021/11/02 10:09:38;;;;;;;1.10;1.00;;;22.10;53.80;;;;;;5091022;28;20368;-79
2021/11/02 10:12:25;;;;;;;1.27;1.00;;;22.10;53.80;;;;;;5072946;28;20471;-79
2021/11/02 10:15:09;;;;;;;1.20;1.10;;;22.10;53.80;;;;;;5072905;28;20491;-79
2021/11/02 10:17:46;;;;;;;1.57;1.10;;;22.10;53.90;;;;;;5072787;28;20440;-79
2021/11/02 10:20:43;;;;;;;1.13;1.00;;;22.10;54.20;;;;;;5072281;28;20413;-79
2021/11/02 10:23:19;;;;;;;1.20;1.10;;;22.10;53.90;;;;;;5072807;28;20470;-80
2021/11/02 10:26:36;;;;;;;1.33;1.10;;;22.10;53.90;;;;;;5033979;28;20425;-79
2021/11/02 10:29:59;;;;;;;1.10;0.97;;;22.10;53.90;;;;;;5005871;28;20441;-79
2021/11/02 10:32:28;;;;;;;1.13;1.03;;;22.10;53.90;;;;;;4954127;29;20438;-79
2021/11/02 10:34:59;;;;;;;2.97;1.57;;;22.00;53.90;;;;;;4954120;29;20485;-79
2021/11/02 10:37:31;;;;;;;1.00;0.80;;;22.10;53.90;;;;;;4953877;29;20426;-79
2021/11/02 10:40:12;;;;;;;1.03;0.93;;;22.10;53.90;;;;;;4953624;29;20482;-79
2021/11/02 10:42:53;;;;;;;1.10;0.90;;;22.10;53.90;;;;;;4970332;29;20422;-79
2021/11/02 10:45:19;;;;;;;1.73;0.97;;;22.10;53.90;;;;;;4954323;29;20450;-79
2021/11/02 10:47:54;;;;;;;1.30;1.00;;;22.10;53.80;;;;;;4969871;29;20522;-79
2021/11/02 10:50:22;;;;;;;1.57;0.90;;;22.10;53.80;;;;;;4953426;29;20437;-79
2021/11/02 10:52:55;;;;;;;1.47;0.90;;;22.10;53.80;;;;;;4954678;29;20430;-79
2021/11/02 10:55:42;;;;;;;1.23;0.90;;;22.10;53.80;;;;;;4969830;29;20462;-79
2021/11/02 10:58:39;;;;;;;1.50;1.40;;;22.10;53.80;;;;;;4970626;29;20510;-79
2021/11/02 11:01:07;;;;;;;1.00;0.90;;;22.10;53.80;;;;;;4969799;29;20421;-78
2021/11/02 11:03:35;;;;;;;1.20;0.90;;;22.10;53.80;;;;;;5016239;28;20419;-79
2021/11/02 11:06:04;;;;;;;1.07;0.93;;;22.10;53.80;;;;;;5032719;28;20429;-79
2021/11/02 11:08:35;;;;;;;1.10;1.00;;;22.10;53.80;;;;;;5016387;28;20407;-78
2021/11/02 11:11:13;;;;;;;0.80;0.60;;;22.10;53.80;;;;;;5032138;28;20508;-79
2021/11/02 11:13:44;;;;;;;1.30;1.10;;;22.10;53.80;;;;;;5032397;28;20478;-79
2021/11/02 11:16:18;;;;;;;1.23;0.90;;;22.10;53.80;;;;;;5050160;28;20434;-79
2021/11/02 11:18:57;;;;;;;1.80;1.00;;;22.10;53.80;;;;;;5050051;28;20383;-78
2021/11/02 11:21:25;;;;;;;1.00;0.70;;;22.10;53.70;;;;;;5066271;28;20425;-78
2021/11/02 11:24:21;;;;;;;1.30;0.80;;;22.20;53.80;;;;;;5072489;28;20406;-79
2021/11/02 11:26:54;;;;;;;1.23;0.93;;;22.10;53.70;;;;;;5032974;28;20485;-78
2021/11/02 11:29:21;;;;;;;1.13;0.90;;;22.20;53.80;;;;;;5054398;28;20821;-78
2021/11/02 11:31:57;;;;;;;1.07;0.90;;;22.10;53.80;;;;;;5072223;28;20412;-79
2021/11/02 11:34:35;;;;;;;1.47;1.00;;;22.20;53.80;;;;;;5070461;28;20423;-79
2021/11/02 11:37:03;;;;;;;1.10;0.90;;;22.20;53.80;;;;;;5053060;28;20420;-78
2021/11/02 11:39:31;;;;;;;5.77;1.00;;;22.20;53.80;;;;;;5069865;28;20408;-79
2021/11/02 11:42:01;;;;;;;1.20;0.90;;;22.10;53.80;;;;;;5052751;28;20416;-79
2021/11/02 11:44:28;;;;;;;1.00;0.80;;;22.20;53.80;;;;;;5055617;28;20879;-79
2021/11/02 11:47:22;;;;;;;1.37;0.90;;;22.20;53.90;;;;;;5056281;28;20451;-79
2021/11/02 11:49:49;;;;;;;1.10;0.90;;;22.20;53.80;;;;;;5053700;28;20401;-79
2021/11/02 11:52:25;;;;;;;1.10;0.93;;;22.10;53.80;;;;;;5073952;28;20401;-78
2021/11/02 11:54:57;;;;;;;1.20;1.00;;;22.10;53.80;;;;;;5056634;28;20449;-79
2021/11/02 11:57:34;;;;;;;1.00;0.80;;;22.10;53.80;;;;;;5056180;28;20796;-80
2021/11/02 12:00:07;;;;;;;1.00;0.90;;;22.10;53.80;;;;;;5073378;28;20389;-80
2021/11/02 12:03:06;;;;;;;1.37;1.07;;;22.10;53.90;;;;;;5073834;28;20401;-80
2021/11/02 12:05:42;;;;;;;1.10;0.80;;;22.20;53.90;;;;;;5056685;28;20402;-79
2021/11/02 12:08:23;;;;;;;1.20;1.00;;;22.10;53.90;;;;;;5041309;28;20401;-79
2021/11/02 12:10:52;;;;;;;1.73;1.10;;;22.10;53.80;;;;;;5074293;28;20390;-78
2021/11/02 12:13:19;;;;;;;1.10;0.90;;;22.10;53.90;;;;;;5057409;28;20429;-79
2021/11/02 12:16:10;;;;;;;1.97;1.43;;;22.10;53.80;;;;;;5057990;28;20457;-79
2021/11/02 12:18:40;;;;;;;1.50;0.97;;;22.20;53.90;;;;;;5073943;28;20481;-78
2021/11/02 12:21:10;;;;;;;1.00;0.90;;;22.10;53.80;;;;;;5058151;28;20421;-79
2021/11/02 12:23:40;;;;;;;1.20;1.00;;;22.10;53.80;;;;;;5058004;28;20410;-79
2021/11/02 12:26:07;;;;;;;0.90;0.70;;;22.10;53.80;;;;;;5072960;28;20436;-79
2021/11/02 12:28:38;;;;;;;2.07;0.93;;;22.20;53.90;;;;;;5076553;28;20401;-79
2021/11/02 12:31:14;;;;;;;1.13;0.90;;;22.20;53.90;;;;;;5077698;28;20427;-80
2021/11/02 12:33:59;;;;;;;1.00;0.80;;;22.20;53.90;;;;;;5060567;28;20397;-80
2021/11/02 12:36:30;;;;;;;1.30;0.83;;;22.20;53.80;;;;;;5059829;28;20457;-80
2021/11/02 12:39:06;;;;;;;1.60;0.80;;;22.20;53.90;;;;;;5060160;28;20410;-80
2021/11/02 12:41:32;;;;;;;1.30;0.90;;;22.20;53.90;;;;;;5060242;28;20393;-80
2021/11/02 12:44:15;;;;;;;1.00;0.80;;;22.20;53.80;;;;;;5076868;28;20413;-80
2021/11/02 12:46:44;;;;;;;1.17;0.90;;;22.20;53.80;;;;;;5077361;28;20440;-79
2021/11/02 12:49:20;;;;;;;1.00;0.80;;;22.20;53.90;;;;;;5077870;28;20414;-80
2021/11/02 12:51:53;;;;;;;1.10;0.80;;;22.20;53.90;;;;;;5060195;28;20423;-79
2021/11/02 12:54:31;;;;;;;1.10;0.87;;;22.20;53.90;;;;;;5060384;28;20397;-78
2021/11/02 12:57:05;;;;;;;1.00;0.80;;;22.20;53.80;;;;;;5059135;28;20458;-80
2021/11/02 12:59:35;;;;;;;1.10;0.83;;;22.20;53.90;;;;;;5060229;28;20405;-80
2021/11/02 13:02:30;;;;;;;1.27;0.80;;;22.20;53.90;;;;;;5060492;28;20417;-79
2021/11/02 13:05:00;;;;;;;1.00;0.80;;;22.20;53.80;;;;;;5059896;28;20405;-79
2021/11/02 13:10:53;;;;;;;1.00;0.90;;;22.20;53.90;;;;;;5077411;28;20380;-79
2021/11/02 13:13:20;;;;;;;1.03;0.83;;;22.20;53.90;;;;;;5077012;28;20388;-79
2021/11/02 13:15:54;;;;;;;1.00;0.90;;;22.20;53.90;;;;;;5077619;28;20472;-78
2021/11/02 13:18:33;;;;;;;1.03;0.90;;;22.20;53.90;;;;;;5077073;28;20405;-80
2021/11/02 13:21:29;;;;;;;1.00;0.90;;;22.20;53.90;;;;;;5059828;28;20409;-79
2021/11/02 13:24:14;;;;;;;1.43;0.93;;;22.20;53.90;;;;;;5059664;28;20406;-80
2021/11/02 13:26:43;;;;;;;1.13;0.87;;;22.20;53.90;;;;;;5060166;28;20424;-80
2021/11/02 13:29:21;;;;;;;1.00;0.80;;;22.20;53.90;;;;;;5076984;28;20473;-81
2021/11/02 13:31:48;;;;;;;2.23;1.37;;;22.20;53.90;;;;;;5077015;28;20418;-80
2021/11/02 13:34:17;;;;;;;1.50;1.00;;;22.10;53.80;;;;;;5076422;28;20424;-80
2021/11/02 13:36:43;;;;;;;1.03;0.90;;;22.20;53.90;;;;;;5058750;28;20460;-79
2021/11/02 13:39:14;;;;;;;1.73;0.90;;;22.20;53.90;;;;;;5059090;28;20462;-80
2021/11/02 13:41:51;;;;;;;1.00;0.80;;;22.20;53.90;;;;;;5075919;28;20401;-79
2021/11/02 13:44:18;;;;;;;1.60;1.10;;;22.20;53.90;;;;;;5059131;28;20420;-80
2021/11/02 13:47:01;;;;;;;1.10;0.80;;;22.20;53.90;;;;;;5057978;28;20453;-79
2021/11/02 13:49:29;;;;;;;1.00;0.80;;;22.10;53.80;;;;;;5058591;28;20447;-80
2021/11/02 13:51:55;;;;;;;1.00;0.80;;;22.10;53.90;;;;;;5076170;28;20437;-79
2021/11/02 13:54:22;;;;;;;1.17;0.87;;;22.10;53.90;;;;;;5076167;28;20484;-80
2021/11/02 13:56:48;;;;;;;0.90;0.80;;;22.20;54.00;;;;;;5076277;28;20425;-80
2021/11/02 13:59:14;;;;;;;1.07;0.80;;;22.10;53.90;;;;;;5059267;28;20429;-81
2021/11/02 14:01:52;;;;;;;1.10;0.80;;;22.20;54.00;;;;;;5059717;28;20428;-80
2021/11/02 14:04:32;;;;;;;1.30;1.00;;;22.20;53.90;;;;;;5043166;28;20427;-78
2021/11/02 14:07:36;;;;;;;1.20;0.73;;;22.20;53.90;;;;;;5076953;28;20392;-80
2021/11/02 14:10:09;;;;;;;1.77;0.90;;;22.20;54.00;;;;;;5006119;28;20447;-79
2021/11/02 14:12:45;;;;;;;3.20;0.90;;;22.10;53.90;;;;;;5075679;28;20409;-79
2021/11/02 14:15:18;;;;;;;1.17;0.93;;;22.10;53.90;;;;;;5058733;28;20477;-80
2021/11/02 14:17:56;;;;;;;1.20;1.00;;;22.10;54.00;;;;;;5075670;28;20408;-79
2021/11/02 14:20:37;;;;;;;1.23;0.80;;;22.10;54.00;;;;;;5058650;28;20425;-79
2021/11/02 14:23:07;;;;;;;1.20;1.03;;;22.10;54.00;;;;;;5041326;28;20417;-79
2021/11/02 14:25:41;;;;;;;1.00;0.80;;;22.10;54.10;;;;;;5075903;28;20386;-79
2021/11/02 14:28:07;;;;;;;2.00;1.00;;;22.10;54.00;;;;;;5075890;28;20413;-79
2021/11/02 14:30:38;;;;;;;1.30;0.90;;;22.10;54.00;;;;;;5075757;28;20481;-80
2021/11/02 14:33:04;;;;;;;1.60;0.80;;;22.10;54.00;;;;;;5058920;28;20472;-80
2021/11/02 14:35:53;;;;;;;0.90;0.80;;;22.10;54.00;;;;;;5076259;28;20441;-80
2021/11/02 14:38:22;;;;;;;1.07;0.90;;;22.10;54.00;;;;;;5058463;28;20416;-80
2021/11/02 14:40:59;;;;;;;1.10;0.80;;;22.10;54.10;;;;;;5076614;28;20393;-80
2021/11/02 14:43:28;;;;;;;1.20;0.70;;;22.10;54.10;;;;;;5059200;28;20442;-80
2021/11/02 14:45:59;;;;;;;1.40;0.90;;;22.10;54.10;;;;;;5075315;28;20386;-80
2021/11/02 14:48:25;;;;;;;1.10;0.80;;;22.10;54.00;;;;;;5076709;28;20390;-79
2021/11/02 14:50:52;;;;;;;1.00;0.83;;;22.10;54.10;;;;;;5059114;28;20445;-80
2021/11/02 14:53:36;;;;;;;2.27;1.00;;;22.10;54.10;;;;;;5057901;28;20756;-80
2021/11/02 14:56:14;;;;;;;0.90;0.70;;;22.10;54.00;;;;;;5075277;28;20445;-80
2021/11/02 14:58:41;;;;;;;1.03;0.90;;;22.10;54.10;;;;;;5075512;28;20472;-80
2021/11/02 15:01:10;;;;;;;1.00;0.90;;;22.10;54.10;;;;;;5075763;28;20431;-80
2021/11/02 15:03:37;;;;;;;1.10;0.90;;;22.10;54.10;;;;;;5058296;28;20405;-79
2021/11/02 15:06:05;;;;;;;2.33;0.80;;;22.10;54.10;;;;;;5075547;28;20413;-79
2021/11/02 15:08:36;;;;;;;1.10;0.90;;;22.10;54.10;;;;;;5074852;28;20444;-80
2021/11/02 15:11:20;;;;;;;1.40;0.90;;;22.10;54.10;;;;;;5057915;28;20431;-80
2021/11/02 15:13:55;;;;;;;0.93;0.83;;;22.10;54.10;;;;;;5057932;28;20421;-80
2021/11/02 15:16:23;;;;;;;1.00;0.80;;;22.10;54.10;;;;;;5058366;28;20481;-79
2021/11/02 15:18:51;;;;;;;1.00;0.87;;;22.10;54.10;;;;;;5078018;28;20749;-79
2021/11/02 15:21:35;;;;;;;1.30;0.73;;;22.10;54.10;;;;;;5061258;28;20502;-78
2021/11/02 15:24:10;;;;;;;1.10;0.90;;;22.10;54.10;;;;;;5079128;28;20449;-80
2021/11/02 15:26:56;;;;;;;1.20;0.80;;;22.10;54.20;;;;;;5061540;28;20469;-80
2021/11/02 15:29:26;;;;;;;1.10;0.90;;;22.10;54.20;;;;;;5061792;28;20405;-79
2021/11/02 15:32:02;;;;;;;0.93;0.83;;;22.10;54.20;;;;;;5078975;28;20418;-79
2021/11/02 15:34:45;;;;;;;1.10;0.60;;;22.10;54.20;;;;;;5079175;28;20401;-79
2021/11/02 15:37:17;;;;;;;1.50;0.80;;;22.10;54.20;;;;;;5079265;28;20435;-79
2021/11/02 15:39:46;;;;;;;1.30;0.93;;;22.10;54.30;;;;;;5061119;28;20434;-78
2021/11/02 15:42:28;;;;;;;1.83;0.80;;;22.00;54.10;;;;;;5079449;28;20401;-79
2021/11/02 15:44:56;;;;;;;1.00;0.80;;;22.10;54.20;;;;;;5078875;28;20779;-80
2021/11/02 15:47:25;;;;;;;0.93;0.73;;;22.00;54.20;;;;;;5061691;28;20429;-80
2021/11/02 15:49:59;;;;;;;1.17;0.80;;;22.00;54.10;;;;;;5079605;28;20501;-79
2021/11/02 15:52:28;;;;;;;1.10;0.80;;;22.10;54.20;;;;;;5061607;28;20406;-80
2021/11/02 15:54:53;;;;;;;1.63;0.80;;;22.10;54.20;;;;;;5078663;28;20453;-80
2021/11/02 15:57:25;;;;;;;1.00;0.83;;;22.10;54.20;;;;;;5078639;28;20409;-80
2021/11/02 16:00:09;;;;;;;1.20;0.80;;;22.10;54.20;;;;;;5078302;28;20139;-80
2021/11/02 16:02:40;;;;;;;1.00;0.80;;;22.10;54.20;;;;;;5078753;28;20388;-80
2021/11/02 16:05:11;;;;;;;1.00;0.80;;;22.10;54.20;;;;;;5078522;28;20422;-80
2021/11/02 16:07:37;;;;;;;1.00;0.80;;;22.10;54.20;;;;;;5078704;28;20406;-80
2021/11/02 16:10:59;;;;;;;1.00;0.87;;;22.10;54.20;;;;;;5061582;28;20471;-80
2021/11/02 16:13:25;;;;;;;1.20;0.90;;;22.10;54.10;;;;;;5078185;28;20439;-80
2021/11/02 16:15:52;;;;;;;1.10;1.00;;;22.10;54.10;;;;;;5060506;28;20511;-80
2021/11/02 16:18:24;;;;;;;1.27;1.03;;;22.10;54.10;;;;;;5060344;28;20429;-78
2021/11/02 16:20:57;;;;;;;1.10;0.97;;;22.10;54.10;;;;;;5060125;28;20406;-79
2021/11/02 16:23:26;;;;;;;0.83;0.67;;;22.10;54.10;;;;;;5060156;28;20409;-80
2021/11/02 16:25:58;;;;;;;1.10;0.80;;;22.10;54.10;;;;;;5077798;28;20397;-79
2021/11/02 16:28:32;;;;;;;1.07;0.73;;;22.10;54.00;;;;;;5077383;28;20421;-78
2021/11/02 16:31:02;;;;;;;0.90;0.77;;;22.10;54.00;;;;;;5060628;28;20425;-79
2021/11/02 16:33:37;;;;;;;1.00;0.80;;;22.10;54.00;;;;;;5061263;28;20421;-79
2021/11/02 16:36:28;;;;;;;1.37;0.90;;;22.10;54.00;;;;;;5060649;28;20437;-78
2021/11/02 16:39:13;;;;;;;0.80;0.60;;;22.20;54.00;;;;;;5077812;28;20400;-79
2021/11/02 16:41:54;;;;;;;1.20;0.80;;;22.10;54.00;;;;;;5060787;28;20488;-79
2021/11/02 16:44:40;;;;;;;1.10;0.80;;;22.10;54.00;;;;;;5060679;28;20410;-79
2021/11/02 16:47:12;;;;;;;1.03;0.90;;;22.20;54.10;;;;;;5077442;28;20497;-79
2021/11/02 16:49:39;;;;;;;1.00;0.70;;;22.10;54.00;;;;;;5061099;28;20413;-80
2021/11/02 16:52:26;;;;;;;1.00;0.83;;;22.10;54.00;;;;;;5060919;28;20398;-79
2021/11/02 16:54:52;;;;;;;0.90;0.70;;;22.20;54.10;;;;;;5059548;28;20437;-80
2021/11/02 16:57:21;;;;;;;0.87;0.60;;;22.10;54.00;;;;;;5060073;28;20416;-80
2021/11/02 16:59:50;;;;;;;1.00;0.80;;;22.10;54.00;;;;;;5059752;28;20417;-79
2021/11/02 17:02:23;;;;;;;1.00;0.70;;;22.10;54.00;;;;;;5077240;28;20406;-79
2021/11/02 17:05:40;;;;;;;1.20;0.80;;;22.10;54.00;;;;;;5027861;28;20413;-80
2021/11/02 17:08:11;;;;;;;0.90;0.67;;;22.20;54.10;;;;;;5034827;28;20448;-79
2021/11/02 17:10:51;;;;;;;1.10;0.70;;;22.10;54.10;;;;;;5059368;28;21099;-80
2021/11/02 17:13:24;;;;;;;1.37;0.83;;;22.10;54.10;;;;;;5077295;28;20413;-80
2021/11/02 17:15:53;;;;;;;1.03;0.80;;;22.10;54.10;;;;;;5054913;28;20483;-77
2021/11/02 17:18:32;;;;;;;0.90;0.70;;;22.10;54.10;;;;;;5072657;28;20410;-77
2021/11/02 17:21:04;;;;;;;1.10;0.80;;;22.10;54.10;;;;;;5073513;28;20490;-77
2021/11/02 17:23:30;;;;;;;0.90;0.80;;;22.10;54.10;;;;;;5056309;28;20424;-77
2021/11/02 17:25:55;;;;;;;0.90;0.70;;;22.10;54.40;;;;;;5056145;28;20425;-76
2021/11/02 17:28:21;;;;;;;0.90;0.70;;;22.10;54.10;;;;;;5055782;28;20266;-77
2021/11/02 17:30:47;;;;;;;0.93;0.83;;;22.10;54.00;;;;;;5055452;28;20213;-77
2021/11/02 17:36:36;;;;;;;1.10;0.80;;;22.20;54.10;;;;;;5072165;28;20249;-77
2021/11/02 17:39:10;;;;;;;0.90;0.70;;;22.10;54.10;;;;;;5053372;28;20462;-77
2021/11/02 17:41:36;;;;;;;1.07;0.87;;;22.10;54.10;;;;;;5080985;28;20416;-78
2021/11/02 17:44:28;;;;;;;1.37;0.80;;;22.10;54.10;;;;;;5074570;28;20424;-76
2021/11/02 17:46:54;;;;;;;1.10;0.80;;;22.10;54.00;;;;;;5091045;28;20178;-76
2021/11/02 17:49:21;;;;;;;1.00;0.80;;;22.10;54.10;;;;;;5074493;28;20414;-77
2021/11/02 17:51:47;;;;;;;0.90;0.70;;;22.10;54.00;;;;;;5091897;28;20177;-77
2021/11/02 17:54:19;;;;;;;0.80;0.67;;;22.20;54.10;;;;;;5069778;28;20405;-77
2021/11/02 17:56:46;;;;;;;1.50;0.90;;;22.20;54.10;;;;;;5035035;28;20461;-78
2021/11/02 17:59:12;;;;;;;1.00;0.80;;;22.10;54.00;;;;;;5053487;28;20440;-76
2021/11/02 18:01:42;;;;;;;0.90;0.70;;;22.20;54.10;;;;;;5071736;28;20922;-77
2021/11/02 18:04:11;;;;;;;1.10;0.80;;;22.20;54.10;;;;;;5053273;28;20427;-76
2021/11/02 18:06:40;;;;;;;1.00;0.80;;;22.20;54.10;;;;;;5053950;28;20422;-77
2021/11/02 18:09:13;;;;;;;1.03;0.73;;;22.20;54.10;;;;;;5053724;28;20436;-77
2021/11/02 18:11:41;;;;;;;1.13;0.70;;;22.20;54.10;;;;;;5053876;28;20420;-78
2021/11/02 18:14:07;;;;;;;1.10;0.83;;;22.20;54.10;;;;;;5071192;28;20412;-77
2021/11/02 18:16:34;;;;;;;1.00;0.70;;;22.20;54.10;;;;;;5053599;28;20464;-77
2021/11/02 18:19:03;;;;;;;1.33;1.17;;;22.20;54.10;;;;;;5053514;28;20788;-77